Time;durP1;ratioP1;P1;durP2;ratioP2;P2;SDS_P1;SDS_P2;PMS_P1;PMS_P2;Temp;Humidity;BMP_temperature;BMP_pressure;BME280_temperature;BME280_humidity;BME280_pressure;Samples;Min_cycle;Max_cycle;Signal;HPM_P1;HPM_P2
2022/08/30 00:01:25;;;;;;;;;;;16.70;99.90;;;;;;5072193;28;19923;-48
2022/08/30 00:03:53;;;;;;;;;;;16.70;99.90;;;;;;5073546;28;19943;-51
2022/08/30 00:06:19;;;;;;;;;;;16.70;99.90;;;;;;5073284;28;19924;-48
2022/08/30 00:08:47;;;;;;;;;;;16.80;99.90;;;;;;5073067;28;19927;-50
2022/08/30 00:11:15;;;;;;;;;;;16.80;99.90;;;;;;5071753;28;19920;-50
2022/08/30 00:13:42;;;;;;;;;;;16.60;99.90;;;;;;5072952;28;19952;-49
2022/08/30 00:16:08;;;;;;;;;;;16.70;99.90;;;;;;5071573;28;19924;-47
2022/08/30 00:18:34;;;;;;;;;;;16.60;99.90;;;;;;5072928;28;20264;-49
2022/08/30 00:20:59;;;;;;;;;;;16.70;99.90;;;;;;5072850;28;19916;-47
2022/08/30 00:23:25;;;;;;;;;;;16.60;99.90;;;;;;5072468;28;19970;-51
2022/08/30 00:25:51;;;;;;;;;;;16.50;99.90;;;;;;5071481;28;19920;-51
2022/08/30 00:28:17;;;;;;;;;;;16.50;99.90;;;;;;5072614;28;20367;-50
2022/08/30 00:30:43;;;;;;;;;;;16.50;99.90;;;;;;5071398;28;19920;-47
2022/08/30 00:33:09;;;;;;;;;;;16.50;99.90;;;;;;5072758;28;19938;-46
2022/08/30 00:35:35;;;;;;;;;;;16.40;99.90;;;;;;5072680;28;20011;-47
2022/08/30 00:38:01;;;;;;;;;;;16.30;99.90;;;;;;5072746;28;20363;-48
2022/08/30 00:40:27;;;;;;;;;;;16.30;99.90;;;;;;5072798;28;19920;-50
2022/08/30 00:42:53;;;;;;;;;;;16.30;99.90;;;;;;5072392;28;19927;-50
2022/08/30 00:45:24;;;;;;;;;;;16.20;99.90;;;;;;5072231;28;19920;-51
2022/08/30 00:47:50;;;;;;;;;;;16.20;99.90;;;;;;5071876;28;19967;-48
2022/08/30 00:50:17;;;;;;;;;;;16.30;99.90;;;;;;5072474;28;20350;-48
2022/08/30 00:52:45;;;;;;;;;;;16.20;99.90;;;;;;5072205;28;19920;-49
2022/08/30 00:55:12;;;;;;;;;;;16.10;99.90;;;;;;5072074;28;19970;-49
2022/08/30 00:57:40;;;;;;;;;;;16.20;99.90;;;;;;5071911;28;19916;-47
2022/08/30 01:00:06;;;;;;;;;;;16.20;99.90;;;;;;5072147;28;19920;-48
2022/08/30 01:02:32;;;;;;;;;;;16.20;99.90;;;;;;5072273;28;19923;-48
2022/08/30 01:04:59;;;;;;;;;;;16.20;99.90;;;;;;5071918;28;20371;-49
2022/08/30 01:07:25;;;;;;;;;;;16.10;99.90;;;;;;5070597;28;19999;-51
2022/08/30 01:09:50;;;;;;;;;;;16.10;99.90;;;;;;5071932;28;20000;-49
2022/08/30 01:12:16;;;;;;;;;;;16.00;99.90;;;;;;5071898;28;19920;-51
2022/08/30 01:14:42;;;;;;;;;;;16.00;99.90;;;;;;5070254;28;19924;-51
2022/08/30 01:17:08;;;;;;;;;;;16.00;99.90;;;;;;5071983;28;19916;-49
2022/08/30 01:19:41;;;;;;;;;;;16.10;99.90;;;;;;5071722;28;19951;-48
2022/08/30 01:22:21;;;;;;;;;;;16.00;99.90;;;;;;5071755;28;19932;-47
2022/08/30 01:24:47;;;;;;;;;;;16.00;99.90;;;;;;5071532;28;20003;-48
2022/08/30 01:27:14;;;;;;;;;;;15.90;99.90;;;;;;5071285;28;19923;-51
2022/08/30 01:29:43;;;;;;;;;;;15.80;99.90;;;;;;5071145;28;20286;-46
2022/08/30 01:32:19;;;;;;;;;;;15.90;99.90;;;;;;5071526;28;19920;-48
2022/08/30 01:34:47;;;;;;;;;;;15.80;99.90;;;;;;5071329;28;20295;-47
2022/08/30 01:37:17;;;;;;;;;;;15.80;99.90;;;;;;5071579;28;19917;-48
2022/08/30 01:39:45;;;;;;;;;;;15.90;99.90;;;;;;5071398;28;20050;-51
2022/08/30 01:42:11;;;;;;;;;;;15.80;99.90;;;;;;5070173;28;19917;-46
2022/08/30 01:44:37;;;;;;;;;;;15.70;99.90;;;;;;5070339;28;19916;-50
2022/08/30 01:47:03;;;;;;;;;;;15.70;99.90;;;;;;5071118;28;20290;-49
2022/08/30 01:49:29;;;;;;;;;;;15.60;99.90;;;;;;5071068;28;20382;-50
2022/08/30 01:51:54;;;;;;;;;;;15.70;99.90;;;;;;5069883;28;20033;-47
2022/08/30 01:54:20;;;;;;;;;;;15.60;99.90;;;;;;5071248;28;19916;-49
2022/08/30 01:56:45;;;;;;;;;;;15.70;99.90;;;;;;5071222;28;19944;-49
2022/08/30 01:59:11;;;;;;;;;;;15.70;99.90;;;;;;5070907;28;19922;-49
2022/08/30 02:01:38;;;;;;;;;;;15.50;99.90;;;;;;5071208;28;19920;-47
2022/08/30 02:04:04;;;;;;;;;;;15.60;99.90;;;;;;5070773;28;19924;-45
2022/08/30 02:06:30;;;;;;;;;;;15.50;99.90;;;;;;5070775;28;20386;-45
2022/08/30 02:08:55;;;;;;;;;;;15.60;99.90;;;;;;5070805;28;19920;-50
2022/08/30 02:11:21;;;;;;;;;;;15.50;99.90;;;;;;5070917;28;19929;-49
2022/08/30 02:13:46;;;;;;;;;;;15.50;99.90;;;;;;5070709;28;19917;-50
2022/08/30 02:16:14;;;;;;;;;;;15.50;99.90;;;;;;5070473;28;20026;-48
2022/08/30 02:18:40;;;;;;;;;;;15.50;99.90;;;;;;5070624;28;19928;-47
2022/08/30 02:21:06;;;;;;;;;;;15.50;99.90;;;;;;5070844;28;19924;-47
2022/08/30 02:23:32;;;;;;;;;;;15.50;99.90;;;;;;5070552;28;19916;-49
2022/08/30 02:25:57;;;;;;;;;;;15.50;99.90;;;;;;5069625;28;19923;-47
2022/08/30 02:28:24;;;;;;;;;;;15.40;99.90;;;;;;5070530;28;20006;-48
2022/08/30 02:30:50;;;;;;;;;;;15.40;99.90;;;;;;5070646;28;19916;-48
2022/08/30 02:33:16;;;;;;;;;;;15.40;99.90;;;;;;5070718;28;19939;-48
2022/08/30 02:35:41;;;;;;;;;;;15.30;99.90;;;;;;5070518;28;19920;-49
2022/08/30 02:38:08;;;;;;;;;;;15.30;99.90;;;;;;5070634;28;20283;-49
2022/08/30 02:40:34;;;;;;;;;;;15.40;99.90;;;;;;5070709;28;19925;-47
2022/08/30 02:43:00;;;;;;;;;;;15.40;99.90;;;;;;5070541;28;20278;-51
2022/08/30 02:45:26;;;;;;;;;;;15.40;99.90;;;;;;5070180;28;20383;-48
2022/08/30 02:47:51;;;;;;;;;;;15.40;99.90;;;;;;5070317;28;19927;-48
2022/08/30 02:50:17;;;;;;;;;;;15.30;99.90;;;;;;5069958;28;19928;-47
2022/08/30 02:52:43;;;;;;;;;;;15.30;99.90;;;;;;5070122;28;20253;-48
2022/08/30 02:55:08;;;;;;;;;;;15.40;99.90;;;;;;5070225;28;19920;-51
2022/08/30 02:57:34;;;;;;;;;;;15.40;99.90;;;;;;5073061;28;19920;-52
2022/08/30 03:00:00;;;;;;;;;;;15.20;99.90;;;;;;5074495;28;19923;-48
2022/08/30 03:02:26;;;;;;;;;;;15.20;99.90;;;;;;5074273;28;20133;-48
2022/08/30 03:04:52;;;;;;;;;;;15.20;99.90;;;;;;5074310;28;20295;-48
2022/08/30 03:07:18;;;;;;;;;;;15.20;99.90;;;;;;5073039;28;20440;-49
2022/08/30 03:09:43;;;;;;;;;;;15.10;99.90;;;;;;5072920;28;19920;-50
2022/08/30 03:12:10;;;;;;;;;;;15.10;99.90;;;;;;5073899;28;19928;-47
2022/08/30 03:14:36;;;;;;;;;;;15.10;99.90;;;;;;5073871;28;19920;-51
2022/08/30 03:17:02;;;;;;;;;;;15.20;99.90;;;;;;5073773;28;19942;-47
2022/08/30 03:19:28;;;;;;;;;;;15.00;99.90;;;;;;5073862;28;19931;-49
2022/08/30 03:21:53;;;;;;;;;;;15.00;99.90;;;;;;5073764;28;19920;-47
2022/08/30 03:24:19;;;;;;;;;;;15.00;99.90;;;;;;5074130;28;19920;-45
2022/08/30 03:26:45;;;;;;;;;;;14.90;99.90;;;;;;5074198;28;20283;-47
2022/08/30 03:29:10;;;;;;;;;;;14.90;99.90;;;;;;5073791;28;19920;-48
2022/08/30 03:31:36;;;;;;;;;;;15.00;99.90;;;;;;5072707;28;19932;-46
2022/08/30 03:34:02;;;;;;;;;;;15.00;99.90;;;;;;5073898;28;20341;-48
2022/08/30 03:36:28;;;;;;;;;;;14.90;99.90;;;;;;5073837;28;19917;-46
2022/08/30 03:38:53;;;;;;;;;;;14.80;99.90;;;;;;5073854;28;20294;-46
2022/08/30 03:41:19;;;;;;;;;;;14.90;99.90;;;;;;5073689;28;19920;-47
2022/08/30 03:43:47;;;;;;;;;;;14.90;99.90;;;;;;5073790;28;19916;-50
2022/08/30 03:46:13;;;;;;;;;;;14.80;99.90;;;;;;5073196;28;19928;-45
2022/08/30 03:48:39;;;;;;;;;;;14.90;99.90;;;;;;5073489;28;19927;-46
2022/08/30 03:51:05;;;;;;;;;;;14.80;99.90;;;;;;5070719;28;19927;-49
2022/08/30 03:53:30;;;;;;;;;;;14.80;99.90;;;;;;5072258;28;19920;-46
2022/08/30 03:55:56;;;;;;;;;;;14.70;99.90;;;;;;5073374;28;19974;-47
2022/08/30 03:58:22;;;;;;;;;;;14.70;99.90;;;;;;5073605;28;19920;-49
2022/08/30 04:00:47;;;;;;;;;;;14.70;99.90;;;;;;5073390;28;20352;-48
2022/08/30 04:03:13;;;;;;;;;;;14.70;99.90;;;;;;5073434;28;19916;-49
2022/08/30 04:05:39;;;;;;;;;;;14.60;99.90;;;;;;5073167;28;20260;-46
2022/08/30 04:08:05;;;;;;;;;;;14.70;99.90;;;;;;5072513;28;20367;-48
2022/08/30 04:10:30;;;;;;;;;;;14.60;99.90;;;;;;5072392;28;19943;-46
2022/08/30 04:12:56;;;;;;;;;;;14.70;99.90;;;;;;5073268;28;19927;-48
2022/08/30 04:15:22;;;;;;;;;;;14.50;99.90;;;;;;5072254;28;20260;-49
2022/08/30 04:17:47;;;;;;;;;;;14.50;99.90;;;;;;5072370;28;19920;-51
2022/08/30 04:20:13;;;;;;;;;;;14.50;99.90;;;;;;5072111;28;19924;-45
2022/08/30 04:22:39;;;;;;;;;;;14.60;99.90;;;;;;5071121;28;19923;-46
2022/08/30 04:25:05;;;;;;;;;;;14.60;99.90;;;;;;5072253;28;19920;-46
2022/08/30 04:27:31;;;;;;;;;;;14.60;99.90;;;;;;5072623;28;19916;-47
2022/08/30 04:29:57;;;;;;;;;;;14.50;99.90;;;;;;5072230;28;19928;-50
2022/08/30 04:32:23;;;;;;;;;;;14.50;99.90;;;;;;5071553;28;19928;-47
2022/08/30 04:34:48;;;;;;;;;;;14.50;99.90;;;;;;5072484;28;20360;-45
2022/08/30 04:37:14;;;;;;;;;;;14.50;99.90;;;;;;5072652;28;19916;-46
2022/08/30 04:39:41;;;;;;;;;;;14.60;99.90;;;;;;5071647;28;19920;-47
2022/08/30 04:42:08;;;;;;;;;;;14.60;99.90;;;;;;5072546;28;19920;-49
2022/08/30 04:44:34;;;;;;;;;;;14.40;99.90;;;;;;5072146;28;19999;-47
2022/08/30 04:46:59;;;;;;;;;;;14.50;99.90;;;;;;5071845;28;20007;-45
2022/08/30 04:49:25;;;;;;;;;;;14.40;99.90;;;;;;5072155;28;19920;-48
2022/08/30 04:51:51;;;;;;;;;;;14.40;99.90;;;;;;5072344;28;20322;-45
2022/08/30 04:54:16;;;;;;;;;;;14.40;99.90;;;;;;5071984;28;20390;-45
2022/08/30 04:56:42;;;;;;;;;;;14.50;99.90;;;;;;5072351;28;19920;-48
2022/08/30 04:59:08;;;;;;;;;;;14.30;99.90;;;;;;5070641;28;19916;-49
2022/08/30 05:01:33;;;;;;;;;;;14.40;99.90;;;;;;5072069;28;19924;-47
2022/08/30 05:03:59;;;;;;;;;;;14.30;99.90;;;;;;5072151;28;19916;-48
2022/08/30 05:06:26;;;;;;;;;;;14.30;99.90;;;;;;5072125;28;20245;-47
2022/08/30 05:08:52;;;;;;;;;;;14.30;99.90;;;;;;5071955;28;19929;-45
2022/08/30 05:11:18;;;;;;;;;;;14.30;99.90;;;;;;5071730;28;20034;-48
2022/08/30 05:13:45;;;;;;;;;;;14.30;99.90;;;;;;5071857;28;20047;-50
2022/08/30 05:16:16;;;;;;;;;;;14.20;99.90;;;;;;5071022;28;19924;-47
2022/08/30 05:18:42;;;;;;;;;;;14.30;99.90;;;;;;5070980;28;19931;-47
2022/08/30 05:21:12;;;;;;;;;;;14.20;99.90;;;;;;5071644;28;19927;-48
2022/08/30 05:23:38;;;;;;;;;;;14.30;99.90;;;;;;5071338;28;19920;-48
2022/08/30 05:26:11;;;;;;;;;;;14.30;99.90;;;;;;5071825;28;19939;-47
2022/08/30 05:28:37;;;;;;;;;;;14.30;99.90;;;;;;5069471;28;19924;-47
2022/08/30 05:31:02;;;;;;;;;;;14.30;99.90;;;;;;5053539;28;20367;-48
2022/08/30 05:33:29;;;;;;;;;;;14.30;99.90;;;;;;5071479;28;19920;-48
2022/08/30 05:35:54;;;;;;;;;;;14.30;99.90;;;;;;5071577;28;19917;-46
2022/08/30 05:38:20;;;;;;;;;;;14.30;99.90;;;;;;5070903;28;19923;-47
2022/08/30 05:40:45;;;;;;;;;;;14.40;99.90;;;;;;5071166;28;19924;-48
2022/08/30 05:43:13;;;;;;;;;;;14.30;99.90;;;;;;5071409;28;19970;-49
2022/08/30 05:45:38;;;;;;;;;;;14.40;99.90;;;;;;5070757;28;19921;-47
2022/08/30 05:48:04;;;;;;;;;;;14.40;99.90;;;;;;5071383;28;19926;-47
2022/08/30 05:50:29;;;;;;;;;;;14.50;99.90;;;;;;5071182;28;19967;-47
2022/08/30 05:52:55;;;;;;;;;;;14.40;99.90;;;;;;5071329;28;20386;-48
2022/08/30 05:55:21;;;;;;;;;;;14.50;99.90;;;;;;5071170;28;19920;-48
2022/08/30 05:57:46;;;;;;;;;;;14.50;99.90;;;;;;5071292;28;20371;-46
2022/08/30 06:00:13;;;;;;;;;;;14.60;99.90;;;;;;5070965;28;19947;-46
2022/08/30 06:02:40;;;;;;;;;;;14.70;99.90;;;;;;5070951;28;19920;-46
2022/08/30 06:05:06;;;;;;;;;;;14.70;99.90;;;;;;5069174;28;20015;-50
2022/08/30 06:07:31;;;;;;;;;;;14.60;99.90;;;;;;5070818;28;21001;-48
2022/08/30 06:09:57;;;;;;;;;;;14.70;99.90;;;;;;5070324;28;19920;-48
2022/08/30 06:12:23;;;;;;;;;;;14.80;99.90;;;;;;5071034;28;19927;-48
2022/08/30 06:14:48;;;;;;;;;;;14.80;99.90;;;;;;5070242;28;19958;-48
2022/08/30 06:17:14;;;;;;;;;;;14.80;99.90;;;;;;5070859;28;20025;-49
2022/08/30 06:19:39;;;;;;;;;;;14.90;99.90;;;;;;5070916;28;19924;-47
2022/08/30 06:22:05;;;;;;;;;;;15.00;99.90;;;;;;5070968;28;19920;-50
2022/08/30 06:24:30;;;;;;;;;;;15.00;99.90;;;;;;5070782;28;19924;-50
2022/08/30 06:26:56;;;;;;;;;;;15.10;99.90;;;;;;5070724;28;19923;-49
2022/08/30 06:29:22;;;;;;;;;;;15.10;99.90;;;;;;5070610;28;20291;-50
2022/08/30 06:31:47;;;;;;;;;;;15.20;99.90;;;;;;5070160;28;19923;-51
2022/08/30 06:34:13;;;;;;;;;;;15.30;99.90;;;;;;5069099;28;19920;-50
2022/08/30 06:36:38;;;;;;;;;;;15.30;99.90;;;;;;5070126;28;20382;-48
2022/08/30 06:39:05;;;;;;;;;;;15.40;99.90;;;;;;5070728;28;19924;-47
2022/08/30 06:41:32;;;;;;;;;;;15.50;99.90;;;;;;5070146;28;19936;-46
2022/08/30 06:43:59;;;;;;;;;;;15.50;99.90;;;;;;5070546;28;19966;-47
2022/08/30 06:46:26;;;;;;;;;;;15.60;99.90;;;;;;5069825;28;19959;-47
2022/08/30 06:48:52;;;;;;;;;;;15.70;99.90;;;;;;5069260;28;19921;-49
2022/08/30 06:51:22;;;;;;;;;;;15.60;99.90;;;;;;5070437;28;20394;-51
2022/08/30 06:53:48;;;;;;;;;;;15.70;99.90;;;;;;5070503;28;20007;-47
2022/08/30 06:56:14;;;;;;;;;;;15.70;99.90;;;;;;5070016;28;19975;-46
2022/08/30 06:58:40;;;;;;;;;;;15.80;99.90;;;;;;5070573;28;19916;-46
2022/08/30 07:01:06;;;;;;;;;;;15.80;99.90;;;;;;5068596;28;20370;-46
2022/08/30 07:03:33;;;;;;;;;;;15.90;99.90;;;;;;5070865;28;19916;-51
2022/08/30 07:05:58;;;;;;;;;;;15.90;99.90;;;;;;5070661;28;19939;-49
2022/08/30 07:08:24;;;;;;;;;;;16.00;99.90;;;;;;5070283;28;20351;-52
2022/08/30 07:10:50;;;;;;;;;;;16.20;99.90;;;;;;5070080;28;19974;-49
2022/08/30 07:13:16;;;;;;;;;;;16.20;99.90;;;;;;5070320;28;20308;-47
2022/08/30 07:15:43;;;;;;;;;;;16.30;99.90;;;;;;5069762;28;19921;-48
2022/08/30 07:20:56;;;;;;;;;;;16.50;99.90;;;;;;5070323;28;19931;-50
2022/08/30 07:23:22;;;;;;;;;;;16.60;99.90;;;;;;5070288;28;19916;-49
2022/08/30 07:25:49;;;;;;;;;;;16.70;99.90;;;;;;5070094;28;19916;-47
2022/08/30 07:28:15;;;;;;;;;;;16.80;99.90;;;;;;5069952;28;19924;-47
2022/08/30 07:30:40;;;;;;;;;;;16.90;99.90;;;;;;5070037;28;20073;-50
2022/08/30 07:33:06;;;;;;;;;;;16.70;99.90;;;;;;5070034;28;19920;-50
2022/08/30 07:35:32;;;;;;;;;;;16.90;99.90;;;;;;5068510;28;19963;-50
2022/08/30 07:37:57;;;;;;;;;;;17.00;99.90;;;;;;5070041;28;19935;-49
2022/08/30 07:40:23;;;;;;;;;;;17.10;99.90;;;;;;5069710;28;19916;-50
2022/08/30 07:42:49;;;;;;;;;;;17.20;99.90;;;;;;5071962;28;19920;-48
2022/08/30 07:45:14;;;;;;;;;;;17.20;99.90;;;;;;5072146;28;19917;-45
2022/08/30 07:47:40;;;;;;;;;;;17.20;99.90;;;;;;5072068;28;19920;-51
2022/08/30 07:50:06;;;;;;;;;;;17.40;99.90;;;;;;5073371;28;19932;-49
2022/08/30 07:52:31;;;;;;;;;;;17.30;99.90;;;;;;5073408;28;19922;-49
2022/08/30 07:54:58;;;;;;;;;;;17.50;99.90;;;;;;5073206;28;20264;-48
2022/08/30 07:57:24;;;;;;;;;;;17.60;99.90;;;;;;5073490;28;19916;-51
2022/08/30 07:59:50;;;;;;;;;;;17.60;99.90;;;;;;5073383;28;19939;-49
2022/08/30 08:02:16;;;;;;;;;;;17.80;99.90;;;;;;5073180;28;20008;-48
2022/08/30 08:04:41;;;;;;;;;;;17.80;99.90;;;;;;5073074;28;20019;-50
2022/08/30 08:07:07;;;;;;;;;;;17.80;99.90;;;;;;5073100;28;19990;-52
2022/08/30 08:09:32;;;;;;;;;;;18.10;99.90;;;;;;5072977;28;19951;-50
2022/08/30 08:11:58;;;;;;;;;;;18.20;99.90;;;;;;5073351;28;19923;-48
2022/08/30 08:14:24;;;;;;;;;;;18.00;99.90;;;;;;5073288;28;19916;-50
2022/08/30 08:16:50;;;;;;;;;;;18.00;99.90;;;;;;5072620;28;20264;-48
2022/08/30 08:19:15;;;;;;;;;;;17.90;99.90;;;;;;5073300;28;20351;-51
2022/08/30 08:21:41;;;;;;;;;;;18.20;99.90;;;;;;5072989;28;19916;-52
2022/08/30 08:24:07;;;;;;;;;;;18.20;99.90;;;;;;5072802;28;19920;-47
2022/08/30 08:26:34;;;;;;;;;;;18.40;99.90;;;;;;5072400;28;19932;-46
2022/08/30 08:29:00;;;;;;;;;;;18.40;99.90;;;;;;5072847;28;19921;-49
2022/08/30 08:31:26;;;;;;;;;;;18.50;99.90;;;;;;5072506;28;19923;-49
2022/08/30 08:33:52;;;;;;;;;;;18.60;99.90;;;;;;5072610;28;20356;-46
2022/08/30 08:36:17;;;;;;;;;;;18.60;99.90;;;;;;5072648;28;19924;-50
2022/08/30 08:38:43;;;;;;;;;;;18.70;99.90;;;;;;5072657;28;20010;-50
2022/08/30 08:41:27;;;;;;;;;;;18.90;99.90;;;;;;5072544;28;19920;-51
2022/08/30 08:43:53;;;;;;;;;;;18.80;99.90;;;;;;5070951;28;19923;-49
2022/08/30 08:46:39;;;;;;;;;;;18.70;99.90;;;;;;5071566;28;19920;-51
2022/08/30 08:49:06;;;;;;;;;;;18.90;99.90;;;;;;5071895;28;20359;-47
2022/08/30 08:54:23;;;;;;;;;;;19.30;99.90;;;;;;5072382;28;20061;-49
2022/08/30 08:56:49;;;;;;;;;;;19.20;99.90;;;;;;5072567;28;19924;-48
2022/08/30 08:59:15;;;;;;;;;;;19.40;99.90;;;;;;5072381;28;19923;-51
2022/08/30 09:01:40;;;;;;;;;;;19.20;99.90;;;;;;5072232;28;19923;-49
2022/08/30 09:04:11;;;;;;;;;;;19.30;99.90;;;;;;5072411;28;19924;-47
2022/08/30 09:06:52;;;;;;;;;;;19.30;99.90;;;;;;5071938;28;19939;-46
2022/08/30 09:09:20;;;;;;;;;;;19.70;99.90;;;;;;5072151;28;19975;-49
2022/08/30 09:11:46;;;;;;;;;;;19.80;99.90;;;;;;5072066;28;20402;-47
2022/08/30 09:14:14;;;;;;;;;;;19.70;99.90;;;;;;5071732;28;19920;-46
2022/08/30 09:16:56;;;;;;;;;;;20.20;99.90;;;;;;5071411;28;20011;-51
2022/08/30 09:19:42;;;;;;;;;;;20.40;99.90;;;;;;5071466;28;20376;-46
2022/08/30 09:22:11;;;;;;;;;;;20.60;99.90;;;;;;5071978;28;20003;-48
2022/08/30 09:24:44;;;;;;;;;;;20.70;99.90;;;;;;5070172;28;19924;-48
2022/08/30 09:27:30;;;;;;;;;;;20.60;99.80;;;;;;5071832;28;20355;-47
2022/08/30 09:29:56;;;;;;;;;;;20.40;99.10;;;;;;5071605;28;19920;-49
2022/08/30 09:32:23;;;;;;;;;;;20.60;99.00;;;;;;5069985;28;19920;-47
2022/08/30 09:34:48;;;;;;;;;;;20.30;97.60;;;;;;5071650;28;19926;-48
2022/08/30 09:37:24;;;;;;;;;;;20.50;98.60;;;;;;5071352;28;20355;-49
2022/08/30 09:39:50;;;;;;;;;;;20.60;98.60;;;;;;5071190;28;20386;-46
2022/08/30 09:42:22;;;;;;;;;;;20.40;98.10;;;;;;5071336;28;19920;-48
2022/08/30 09:44:48;;;;;;;;;;;20.90;98.30;;;;;;5071133;28;19916;-48
2022/08/30 09:47:18;;;;;;;;;;;21.00;97.60;;;;;;5070753;28;20397;-48
2022/08/30 09:49:44;;;;;;;;;;;21.30;97.00;;;;;;5071144;28;19966;-50
2022/08/30 09:52:31;;;;;;;;;;;21.30;96.90;;;;;;5071347;28;20367;-48
2022/08/30 09:54:59;;;;;;;;;;;21.40;97.30;;;;;;5049344;28;19920;-50
2022/08/30 09:57:40;;;;;;;;;;;21.50;96.70;;;;;;5071132;28;20386;-49
2022/08/30 10:00:22;;;;;;;;;;;21.30;96.50;;;;;;5071089;28;20401;-49
2022/08/30 10:02:57;;;;;;;;;;;21.00;95.60;;;;;;5070660;28;20320;-49
2022/08/30 10:05:55;;;;;;;;;;;21.10;96.20;;;;;;5070619;28;19977;-49
2022/08/30 10:08:23;;;;;;;;;;;21.10;96.20;;;;;;5047811;28;20423;-46
2022/08/30 10:10:52;;;;;;;;;;;21.20;95.40;;;;;;5070959;28;20329;-46
2022/08/30 10:13:41;;;;;;;;;;;21.10;95.60;;;;;;5071076;28;20276;-48
2022/08/30 10:16:07;;;;;;;;;;;21.30;95.70;;;;;;5070581;28;19924;-47
2022/08/30 10:18:41;;;;;;;;;;;21.40;95.00;;;;;;5070754;28;19966;-49
2022/08/30 10:21:13;;;;;;;;;;;21.70;95.40;;;;;;5070543;28;19920;-49
2022/08/30 10:23:46;;;;;;;;;;;21.50;94.50;;;;;;5070792;28;19924;-46
2022/08/30 10:26:16;;;;;;;;;;;21.40;94.30;;;;;;5069418;28;19965;-47
2022/08/30 10:28:44;;;;;;;;;;;21.50;94.40;;;;;;5070773;28;19916;-49
2022/08/30 10:31:13;;;;;;;;;;;21.40;94.70;;;;;;5070783;28;19920;-50
2022/08/30 10:33:41;;;;;;;;;;;21.40;94.10;;;;;;5070551;28;19916;-49
2022/08/30 10:36:10;;;;;;;;;;;21.70;94.90;;;;;;5070505;28;20474;-50
2022/08/30 10:38:38;;;;;;;;;;;21.80;94.50;;;;;;5070716;28;19920;-45
2022/08/30 10:41:18;;;;;;;;;;;21.70;93.70;;;;;;5070373;28;19920;-48
2022/08/30 10:43:47;;;;;;;;;;;21.70;93.70;;;;;;5070649;28;19916;-50
2022/08/30 10:46:31;;;;;;;;;;;22.00;94.40;;;;;;5068434;28;19932;-48
2022/08/30 10:48:59;;;;;;;;;;;22.10;93.90;;;;;;5070901;28;20348;-47
2022/08/30 10:51:25;;;;;;;;;;;21.80;93.10;;;;;;5070242;28;20048;-50
2022/08/30 10:53:56;;;;;;;;;;;22.40;93.70;;;;;;5070874;28;20474;-46
2022/08/30 10:56:23;;;;;;;;;;;22.20;92.90;;;;;;5070162;28;19924;-47
2022/08/30 10:58:49;;;;;;;;;;;22.40;92.60;;;;;;5070665;28;19927;-48
2022/08/30 11:01:24;;;;;;;;;;;22.30;92.40;;;;;;5069939;28;19920;-53
2022/08/30 11:03:59;;;;;;;;;;;22.70;92.60;;;;;;5070543;28;19920;-47
2022/08/30 11:06:45;;;;;;;;;;;22.80;92.20;;;;;;5070170;28;19927;-50
2022/08/30 11:09:26;;;;;;;;;;;22.60;91.70;;;;;;5070036;28;19920;-50
2022/08/30 11:11:54;;;;;;;;;;;22.50;91.70;;;;;;5070017;28;19920;-45
2022/08/30 11:14:20;;;;;;;;;;;22.50;91.90;;;;;;5070371;28;19924;-48
2022/08/30 11:16:48;;;;;;;;;;;22.40;92.10;;;;;;5069985;28;19932;-48
2022/08/30 11:19:16;;;;;;;;;;;22.40;91.60;;;;;;5072766;28;19923;-45
2022/08/30 11:21:43;;;;;;;;;;;22.50;91.60;;;;;;5074097;28;20329;-47
2022/08/30 11:24:21;;;;;;;;;;;22.50;91.90;;;;;;5074120;28;20220;-49
2022/08/30 11:26:50;;;;;;;;;;;22.50;91.70;;;;;;5073816;28;19965;-46
2022/08/30 11:29:24;;;;;;;;;;;22.80;91.30;;;;;;5073990;28;19924;-49
2022/08/30 11:31:50;;;;;;;;;;;23.20;91.70;;;;;;5073676;28;19982;-46
2022/08/30 11:34:35;;;;;;;;;;;23.30;91.40;;;;;;5073857;28;19924;-46
2022/08/30 11:37:02;;;;;;;;;;;23.30;91.10;;;;;;5073475;28;19916;-50
2022/08/30 11:39:51;;;;;;;;;;;23.40;90.60;;;;;;5073884;28;20362;-49
2022/08/30 11:42:30;;;;;;;;;;;23.60;90.50;;;;;;5072638;28;19920;-47
2022/08/30 11:45:14;;;;;;;;;;;23.70;90.70;;;;;;5073675;28;19920;-50
2022/08/30 11:47:59;;;;;;;;;;;23.40;89.80;;;;;;5073164;28;19946;-49
2022/08/30 11:50:31;;;;;;;;;;;23.30;89.90;;;;;;5073680;28;19930;-50
2022/08/30 11:52:57;;;;;;;;;;;23.60;89.20;;;;;;5073606;28;19920;-47
2022/08/30 11:55:36;;;;;;;;;;;23.70;87.80;;;;;;5071991;28;19917;-49
2022/08/30 11:58:12;;;;;;;;;;;23.90;88.60;;;;;;5073552;28;19938;-48
2022/08/30 12:00:39;;;;;;;;;;;24.40;87.10;;;;;;5073199;28;19923;-46
2022/08/30 12:03:06;;;;;;;;;;;24.40;87.70;;;;;;5073450;28;19959;-47
2022/08/30 12:05:36;;;;;;;;;;;24.70;87.10;;;;;;5073450;28;19922;-51
2022/08/30 12:08:04;;;;;;;;;;;24.90;85.80;;;;;;5073028;28;20006;-47
2022/08/30 12:10:42;;;;;;;;;;;25.00;86.80;;;;;;5073186;28;19989;-46
2022/08/30 12:13:07;;;;;;;;;;;25.20;83.80;;;;;;5073116;28;20275;-47
2022/08/30 12:15:51;;;;;;;;;;;25.10;82.50;;;;;;5072857;28;19920;-50
2022/08/30 12:18:28;;;;;;;;;;;25.00;84.40;;;;;;5073189;28;20397;-46
2022/08/30 12:20:57;;;;;;;;;;;25.60;86.50;;;;;;5073259;28;20322;-46
2022/08/30 12:23:23;;;;;;;;;;;25.40;84.30;;;;;;5073254;28;20414;-51
2022/08/30 12:25:49;;;;;;;;;;;25.40;84.50;;;;;;5072779;28;19920;-51
2022/08/30 12:28:20;;;;;;;;;;;25.70;83.70;;;;;;5072032;28;19999;-48
2022/08/30 12:30:45;;;;;;;;;;;25.10;82.00;;;;;;5072608;28;20011;-48
2022/08/30 12:33:13;;;;;;;;;;;25.40;83.20;;;;;;5072674;28;20315;-50
2022/08/30 12:35:39;;;;;;;;;;;25.40;82.80;;;;;;5071536;28;20337;-49
2022/08/30 12:38:11;;;;;;;;;;;25.00;82.30;;;;;;5072467;28;20377;-48
2022/08/30 12:40:46;;;;;;;;;;;25.50;83.60;;;;;;5072272;28;19924;-52
2022/08/30 12:43:20;;;;;;;;;;;25.80;80.40;;;;;;5072749;28;20355;-50
2022/08/30 12:45:46;;;;;;;;;;;26.00;81.40;;;;;;5072293;28;19939;-48
2022/08/30 12:48:14;;;;;;;;;;;26.40;80.70;;;;;;5070894;28;19932;-50
2022/08/30 12:50:50;;;;;;;;;;;25.80;78.90;;;;;;5072435;28;19944;-50
2022/08/30 12:53:28;;;;;;;;;;;25.70;79.90;;;;;;5072818;28;19916;-47
2022/08/30 12:55:58;;;;;;;;;;;25.70;79.50;;;;;;5072423;28;20347;-48
2022/08/30 12:58:56;;;;;;;;;;;25.80;79.50;;;;;;5072477;28;19990;-47
2022/08/30 13:01:31;;;;;;;;;;;26.00;78.90;;;;;;5048772;28;19920;-48
2022/08/30 13:03:57;;;;;;;;;;;26.20;79.70;;;;;;5072097;28;19920;-47
2022/08/30 13:06:46;;;;;;;;;;;26.20;79.20;;;;;;5072202;28;19974;-48
2022/08/30 13:09:28;;;;;;;;;;;26.30;79.70;;;;;;5071868;28;19928;-49
2022/08/30 13:11:54;;;;;;;;;;;26.40;79.30;;;;;;5071903;28;19917;-49
2022/08/30 13:14:39;;;;;;;;;;;26.50;80.00;;;;;;5071705;28;19973;-48
2022/08/30 13:17:11;;;;;;;;;;;26.90;77.80;;;;;;5070181;28;19952;-49
2022/08/30 13:19:40;;;;;;;;;;;26.50;76.80;;;;;;5069134;28;19920;-48
2022/08/30 13:22:22;;;;;;;;;;;27.20;74.90;;;;;;5071870;28;20007;-48
2022/08/30 13:24:49;;;;;;;;;;;27.40;75.00;;;;;;5071775;28;20001;-46
2022/08/30 13:27:14;;;;;;;;;;;27.40;74.70;;;;;;5071939;28;19923;-49
2022/08/30 13:29:40;;;;;;;;;;;27.20;74.60;;;;;;5071602;28;20283;-48
2022/08/30 13:32:05;;;;;;;;;;;26.70;75.00;;;;;;5071835;28;19920;-48
2022/08/30 13:34:34;;;;;;;;;;;26.70;74.50;;;;;;5071607;28;20347;-45
2022/08/30 13:37:00;;;;;;;;;;;27.00;74.90;;;;;;5071565;28;20006;-47
2022/08/30 13:39:25;;;;;;;;;;;27.50;75.20;;;;;;5070758;28;19917;-52
2022/08/30 13:41:51;;;;;;;;;;;27.10;74.00;;;;;;5071329;28;19921;-47
2022/08/30 13:44:17;;;;;;;;;;;27.20;74.90;;;;;;5070878;28;20294;-48
2022/08/30 13:46:44;;;;;;;;;;;27.40;75.90;;;;;;5070972;28;19920;-50
2022/08/30 13:49:30;;;;;;;;;;;27.60;74.30;;;;;;5071000;28;19921;-49
2022/08/30 13:51:56;;;;;;;;;;;27.90;72.40;;;;;;5070471;28;19924;-49
2022/08/30 13:54:22;;;;;;;;;;;27.50;74.30;;;;;;5071210;28;20382;-51
2022/08/30 13:56:49;;;;;;;;;;;27.70;74.30;;;;;;5071340;28;19920;-48
2022/08/30 13:59:15;;;;;;;;;;;27.90;73.40;;;;;;5070777;28;19927;-46
2022/08/30 14:01:40;;;;;;;;;;;27.60;73.00;;;;;;5070885;28;19916;-49
2022/08/30 14:04:06;;;;;;;;;;;27.30;73.90;;;;;;5071193;28;19920;-49
2022/08/30 14:06:31;;;;;;;;;;;27.20;74.90;;;;;;5070911;28;19920;-47
2022/08/30 14:08:57;;;;;;;;;;;26.90;74.40;;;;;;5070915;28;20311;-48
2022/08/30 14:11:23;;;;;;;;;;;27.10;75.70;;;;;;5071074;28;20007;-46
2022/08/30 14:13:48;;;;;;;;;;;27.00;74.60;;;;;;5070881;28;20320;-47
2022/08/30 14:16:14;;;;;;;;;;;26.90;74.60;;;;;;5070521;28;20276;-48
2022/08/30 14:18:39;;;;;;;;;;;27.60;74.70;;;;;;5070383;28;19927;-51
2022/08/30 14:21:05;;;;;;;;;;;27.30;74.80;;;;;;5070772;28;19923;-47
2022/08/30 14:23:31;;;;;;;;;;;27.30;73.40;;;;;;5070650;28;19969;-48
2022/08/30 14:25:58;;;;;;;;;;;27.10;74.50;;;;;;5070658;28;19920;-51
2022/08/30 14:28:27;;;;;;;;;;;27.50;73.80;;;;;;5070947;28;19917;-46